Terminal Aerodrome Forecast
Issued by NWS Cleveland, OH

Home | Current Version | Previous Version | Graphics & Text | Print | Product List | Glossary On
Versions: 1 2 3 4 5 6 7 8 9 10 11 12 13 14 15 16
000
FTUS41 KCLE 281139
TAFCAK
TAF
KCAK 281139Z 2812/2912 08003KT P6SM VCSH SCT060 OVC150
      TEMPO 2815/2819 18005KT -SHRA BKN050 OVC100
     FM281900 18006KT P6SM SCT050 BKN200
     FM282200 20007KT P6SM VCSH BKN050 OVC150
     FM290100 33004KT P6SM SCT050 BKN150=

USA.gov is the U.S. government's official web portal to all federal, state and local government web resources and services.